sensor_id;sensor_type;location;lat;lon;timestamp;temperature;humidity
69204;DHT22;56317;27.658;85.326;2023-03-26T00:01:13;9.50;99.90
69204;DHT22;56317;27.658;85.326;2023-03-26T00:03:41;9.50;99.90
69204;DHT22;56317;27.658;85.326;2023-03-26T00:06:12;9.50;99.90
69204;DHT22;56317;27.658;85.326;2023-03-26T00:08:41;9.40;99.90
69204;DHT22;56317;27.658;85.326;2023-03-26T00:11:10;9.40;99.90
69204;DHT22;56317;27.658;85.326;2023-03-26T00:13:37;9.40;99.90
69204;DHT22;56317;27.658;85.326;2023-03-26T00:16:06;9.40;99.90
69204;DHT22;56317;27.658;85.326;2023-03-26T00:18:33;9.40;99.90
69204;DHT22;56317;27.658;85.326;2023-03-26T00:21:05;9.40;99.90
69204;DHT22;56317;27.658;85.326;2023-03-26T00:23:34;9.40;99.90
69204;DHT22;56317;27.658;85.326;2023-03-26T00:26:10;9.40;99.90
69204;DHT22;56317;27.658;85.326;2023-03-26T00:28:39;9.40;99.90
69204;DHT22;56317;27.658;85.326;2023-03-26T00:31:09;9.50;99.90
69204;DHT22;56317;27.658;85.326;2023-03-26T00:33:37;9.50;99.90
69204;DHT22;56317;27.658;85.326;2023-03-26T00:36:11;9.60;99.90
69204;DHT22;56317;27.658;85.326;2023-03-26T00:38:43;9.60;99.90
69204;DHT22;56317;27.658;85.326;2023-03-26T00:41:14;9.60;99.90
69204;DHT22;56317;27.658;85.326;2023-03-26T00:44:02;9.70;99.90
69204;DHT22;56317;27.658;85.326;2023-03-26T00:46:30;9.80;99.90
69204;DHT22;56317;27.658;85.326;2023-03-26T00:48:57;9.80;99.90
69204;DHT22;56317;27.658;85.326;2023-03-26T00:51:26;9.90;99.90
69204;DHT22;56317;27.658;85.326;2023-03-26T00:53:53;10.00;99.90
69204;DHT22;56317;27.658;85.326;2023-03-26T00:56:20;10.10;99.90
69204;DHT22;56317;27.658;85.326;2023-03-26T00:58:50;10.10;99.90
69204;DHT22;56317;27.658;85.326;2023-03-26T01:01:23;10.30;99.90
69204;DHT22;56317;27.658;85.326;2023-03-26T01:03:55;10.30;99.90
69204;DHT22;56317;27.658;85.326;2023-03-26T01:06:30;10.50;99.90
69204;DHT22;56317;27.658;85.326;2023-03-26T01:09:22;10.60;99.90
69204;DHT22;56317;27.658;85.326;2023-03-26T01:11:50;10.80;99.90
69204;DHT22;56317;27.658;85.326;2023-03-26T01:14:20;10.90;99.90
69204;DHT22;56317;27.658;85.326;2023-03-26T01:16:57;11.10;99.90
69204;DHT22;56317;27.658;85.326;2023-03-26T01:22:15;11.40;99.90
69204;DHT22;56317;27.658;85.326;2023-03-26T01:24:42;11.60;99.90
69204;DHT22;56317;27.658;85.326;2023-03-26T01:27:37;11.80;99.90
69204;DHT22;56317;27.658;85.326;2023-03-26T01:35:39;12.40;99.90
69204;DHT22;56317;27.658;85.326;2023-03-26T01:38:26;12.50;99.90
69204;DHT22;56317;27.658;85.326;2023-03-26T01:41:04;12.70;99.90
69204;DHT22;56317;27.658;85.326;2023-03-26T01:43:57;12.90;99.90
69204;DHT22;56317;27.658;85.326;2023-03-26T01:46:35;13.10;99.90
69204;DHT22;56317;27.658;85.326;2023-03-26T01:49:07;13.30;99.90
69204;DHT22;56317;27.658;85.326;2023-03-26T01:51:40;13.40;99.90
69204;DHT22;56317;27.658;85.326;2023-03-26T01:54:14;13.60;99.90
69204;DHT22;56317;27.658;85.326;2023-03-26T02:07:24;14.50;99.90
69204;DHT22;56317;27.658;85.326;2023-03-26T02:09:58;14.60;99.90
69204;DHT22;56317;27.658;85.326;2023-03-26T02:12:28;14.70;99.90
69204;DHT22;56317;27.658;85.326;2023-03-26T02:14:58;14.80;99.90
69204;DHT22;56317;27.658;85.326;2023-03-26T02:17:26;15.00;99.90
69204;DHT22;56317;27.658;85.326;2023-03-26T02:19:56;15.20;99.90
69204;DHT22;56317;27.658;85.326;2023-03-26T02:22:22;15.40;99.90
69204;DHT22;56317;27.658;85.326;2023-03-26T02:24:55;15.50;99.90
69204;DHT22;56317;27.658;85.326;2023-03-26T02:27:22;15.60;99.90
69204;DHT22;56317;27.658;85.326;2023-03-26T02:29:49;15.80;99.90
69204;DHT22;56317;27.658;85.326;2023-03-26T02:32:16;15.80;99.90
69204;DHT22;56317;27.658;85.326;2023-03-26T02:34:45;15.90;99.90
69204;DHT22;56317;27.658;85.326;2023-03-26T02:37:12;16.10;99.90
69204;DHT22;56317;27.658;85.326;2023-03-26T02:39:39;16.20;99.90
69204;DHT22;56317;27.658;85.326;2023-03-26T02:42:07;16.30;99.90
69204;DHT22;56317;27.658;85.326;2023-03-26T02:44:33;16.50;99.90
69204;DHT22;56317;27.658;85.326;2023-03-26T02:47:00;16.70;99.90
69204;DHT22;56317;27.658;85.326;2023-03-26T02:49:27;16.90;99.90
69204;DHT22;56317;27.658;85.326;2023-03-26T02:51:54;17.10;99.90
69204;DHT22;56317;27.658;85.326;2023-03-26T02:54:22;17.30;99.90
69204;DHT22;56317;27.658;85.326;2023-03-26T02:56:49;17.60;99.90
69204;DHT22;56317;27.658;85.326;2023-03-26T02:59:17;17.70;99.90
69204;DHT22;56317;27.658;85.326;2023-03-26T03:01:44;17.90;99.90
69204;DHT22;56317;27.658;85.326;2023-03-26T03:04:11;18.10;99.90
69204;DHT22;56317;27.658;85.326;2023-03-26T03:06:39;18.30;99.90
69204;DHT22;56317;27.658;85.326;2023-03-26T03:09:07;18.50;99.90
69204;DHT22;56317;27.658;85.326;2023-03-26T03:11:35;18.70;99.90
69204;DHT22;56317;27.658;85.326;2023-03-26T03:14:02;18.90;99.90
69204;DHT22;56317;27.658;85.326;2023-03-26T03:16:29;19.10;99.90
69204;DHT22;56317;27.658;85.326;2023-03-26T03:18:57;19.30;99.90
69204;DHT22;56317;27.658;85.326;2023-03-26T03:21:26;19.40;99.90
69204;DHT22;56317;27.658;85.326;2023-03-26T03:23:54;19.50;99.90
69204;DHT22;56317;27.658;85.326;2023-03-26T03:26:23;19.80;99.90
69204;DHT22;56317;27.658;85.326;2023-03-26T03:28:55;20.10;99.90
69204;DHT22;56317;27.658;85.326;2023-03-26T03:31:26;20.30;99.90
69204;DHT22;56317;27.658;85.326;2023-03-26T03:33:53;20.50;99.90
69204;DHT22;56317;27.658;85.326;2023-03-26T03:36:21;20.70;99.90
69204;DHT22;56317;27.658;85.326;2023-03-26T03:38:49;20.90;99.90
69204;DHT22;56317;27.658;85.326;2023-03-26T03:41:16;21.10;99.90
69204;DHT22;56317;27.658;85.326;2023-03-26T03:43:44;21.30;99.90
69204;DHT22;56317;27.658;85.326;2023-03-26T03:46:11;21.50;99.60
69204;DHT22;56317;27.658;85.326;2023-03-26T03:48:38;21.60;97.00
69204;DHT22;56317;27.658;85.326;2023-03-26T03:51:05;21.70;97.30
69204;DHT22;56317;27.658;85.326;2023-03-26T03:53:32;21.80;97.90
69204;DHT22;56317;27.658;85.326;2023-03-26T03:56:02;22.00;97.70
69204;DHT22;56317;27.658;85.326;2023-03-26T03:58:29;22.30;96.80
69204;DHT22;56317;27.658;85.326;2023-03-26T04:00:56;22.50;96.30
69204;DHT22;56317;27.658;85.326;2023-03-26T04:03:26;22.70;94.00
69204;DHT22;56317;27.658;85.326;2023-03-26T04:05:54;22.90;94.10
69204;DHT22;56317;27.658;85.326;2023-03-26T04:08:27;23.20;94.30
69204;DHT22;56317;27.658;85.326;2023-03-26T04:10:54;23.50;92.80
69204;DHT22;56317;27.658;85.326;2023-03-26T04:13:21;23.80;92.30
69204;DHT22;56317;27.658;85.326;2023-03-26T04:15:48;24.10;91.00
69204;DHT22;56317;27.658;85.326;2023-03-26T04:18:15;24.40;89.40
69204;DHT22;56317;27.658;85.326;2023-03-26T04:20:43;24.50;87.20
69204;DHT22;56317;27.658;85.326;2023-03-26T04:23:16;24.70;86.10
69204;DHT22;56317;27.658;85.326;2023-03-26T04:25:46;24.90;83.70
69204;DHT22;56317;27.658;85.326;2023-03-26T04:28:16;25.00;83.00
69204;DHT22;56317;27.658;85.326;2023-03-26T04:30:51;25.20;82.10
69204;DHT22;56317;27.658;85.326;2023-03-26T04:33:19;25.30;81.70
69204;DHT22;56317;27.658;85.326;2023-03-26T04:35:47;25.50;80.70
69204;DHT22;56317;27.658;85.326;2023-03-26T04:38:14;25.70;77.30
69204;DHT22;56317;27.658;85.326;2023-03-26T04:40:43;25.70;74.40
69204;DHT22;56317;27.658;85.326;2023-03-26T04:43:14;25.90;71.10
69204;DHT22;56317;27.658;85.326;2023-03-26T04:45:43;25.90;71.60
69204;DHT22;56317;27.658;85.326;2023-03-26T04:48:13;26.00;68.10
69204;DHT22;56317;27.658;85.326;2023-03-26T04:50:44;26.20;66.60
69204;DHT22;56317;27.658;85.326;2023-03-26T04:53:15;26.50;65.30
69204;DHT22;56317;27.658;85.326;2023-03-26T04:58:17;27.00;66.20
69204;DHT22;56317;27.658;85.326;2023-03-26T05:00:54;27.30;58.40
69204;DHT22;56317;27.658;85.326;2023-03-26T05:03:22;27.50;58.00
69204;DHT22;56317;27.658;85.326;2023-03-26T05:05:50;27.80;53.60
69204;DHT22;56317;27.658;85.326;2023-03-26T05:08:18;28.10;54.60
69204;DHT22;56317;27.658;85.326;2023-03-26T05:10:45;28.40;52.00
69204;DHT22;56317;27.658;85.326;2023-03-26T05:13:12;28.40;51.80
69204;DHT22;56317;27.658;85.326;2023-03-26T05:15:39;28.60;51.20
69204;DHT22;56317;27.658;85.326;2023-03-26T05:18:06;28.80;50.40
69204;DHT22;56317;27.658;85.326;2023-03-26T05:20:34;28.80;48.60
69204;DHT22;56317;27.658;85.326;2023-03-26T05:23:01;28.90;49.20
69204;DHT22;56317;27.658;85.326;2023-03-26T05:25:36;29.20;48.90
69204;DHT22;56317;27.658;85.326;2023-03-26T05:28:03;29.60;48.20
69204;DHT22;56317;27.658;85.326;2023-03-26T05:30:31;29.80;47.30
69204;DHT22;56317;27.658;85.326;2023-03-26T05:33:01;29.90;44.50
69204;DHT22;56317;27.658;85.326;2023-03-26T05:35:29;30.00;44.30
69204;DHT22;56317;27.658;85.326;2023-03-26T05:37:56;30.00;41.90
69204;DHT22;56317;27.658;85.326;2023-03-26T05:40:23;30.40;42.80
69204;DHT22;56317;27.658;85.326;2023-03-26T05:42:54;32.20;41.20
69204;DHT22;56317;27.658;85.326;2023-03-26T05:45:21;33.50;42.70
69204;DHT22;56317;27.658;85.326;2023-03-26T05:47:51;34.80;40.90
69204;DHT22;56317;27.658;85.326;2023-03-26T05:50:20;36.10;38.50
69204;DHT22;56317;27.658;85.326;2023-03-26T05:52:47;36.80;38.20
69204;DHT22;56317;27.658;85.326;2023-03-26T05:55:14;37.90;38.40
69204;DHT22;56317;27.658;85.326;2023-03-26T05:57:43;39.20;37.90
69204;DHT22;56317;27.658;85.326;2023-03-26T06:00:10;40.30;35.20
69204;DHT22;56317;27.658;85.326;2023-03-26T06:02:37;41.10;33.70
69204;DHT22;56317;27.658;85.326;2023-03-26T06:05:05;41.50;30.80
69204;DHT22;56317;27.658;85.326;2023-03-26T06:07:33;41.60;30.10
69204;DHT22;56317;27.658;85.326;2023-03-26T06:10:00;41.30;29.90
69204;DHT22;56317;27.658;85.326;2023-03-26T06:12:27;41.20;29.70
69204;DHT22;56317;27.658;85.326;2023-03-26T06:14:54;41.20;29.90
69204;DHT22;56317;27.658;85.326;2023-03-26T06:17:24;42.50;29.60
69204;DHT22;56317;27.658;85.326;2023-03-26T06:19:51;43.80;29.50
69204;DHT22;56317;27.658;85.326;2023-03-26T06:22:18;44.70;29.40
69204;DHT22;56317;27.658;85.326;2023-03-26T06:24:45;45.60;29.20
69204;DHT22;56317;27.658;85.326;2023-03-26T06:27:12;46.50;28.10
69204;DHT22;56317;27.658;85.326;2023-03-26T06:29:39;47.00;26.80
69204;DHT22;56317;27.658;85.326;2023-03-26T06:32:06;47.10;27.60
69204;DHT22;56317;27.658;85.326;2023-03-26T06:34:33;47.40;27.60
69204;DHT22;56317;27.658;85.326;2023-03-26T06:37:00;48.00;27.10
69204;DHT22;56317;27.658;85.326;2023-03-26T06:39:27;48.10;27.50
69204;DHT22;56317;27.658;85.326;2023-03-26T06:41:54;48.00;27.80
69204;DHT22;56317;27.658;85.326;2023-03-26T06:44:21;47.90;27.50
69204;DHT22;56317;27.658;85.326;2023-03-26T06:46:48;47.40;27.10
69204;DHT22;56317;27.658;85.326;2023-03-26T06:49:15;47.50;27.70
69204;DHT22;56317;27.658;85.326;2023-03-26T06:51:42;47.40;27.40
69204;DHT22;56317;27.658;85.326;2023-03-26T06:54:12;47.50;27.50
69204;DHT22;56317;27.658;85.326;2023-03-26T06:56:39;48.30;27.70
69204;DHT22;56317;27.658;85.326;2023-03-26T06:59:06;49.00;28.40
69204;DHT22;56317;27.658;85.326;2023-03-26T07:01:33;49.00;27.60
69204;DHT22;56317;27.658;85.326;2023-03-26T07:04:00;47.80;27.60
69204;DHT22;56317;27.658;85.326;2023-03-26T07:06:28;46.50;27.50
69204;DHT22;56317;27.658;85.326;2023-03-26T07:08:55;45.10;28.00
69204;DHT22;56317;27.658;85.326;2023-03-26T07:11:22;45.00;28.10
69204;DHT22;56317;27.658;85.326;2023-03-26T07:13:51;44.20;27.80
69204;DHT22;56317;27.658;85.326;2023-03-26T07:16:18;44.00;28.10
69204;DHT22;56317;27.658;85.326;2023-03-26T07:18:45;43.70;27.40
69204;DHT22;56317;27.658;85.326;2023-03-26T07:21:12;44.00;27.90
69204;DHT22;56317;27.658;85.326;2023-03-26T07:23:40;44.20;27.10
69204;DHT22;56317;27.658;85.326;2023-03-26T07:26:30;43.50;26.70
69204;DHT22;56317;27.658;85.326;2023-03-26T07:29:17;43.00;26.70
69204;DHT22;56317;27.658;85.326;2023-03-26T07:37:21;41.70;25.50
69204;DHT22;56317;27.658;85.326;2023-03-26T07:47:59;41.90;25.40
69204;DHT22;56317;27.658;85.326;2023-03-26T07:50:36;41.20;25.70
69204;DHT22;56317;27.658;85.326;2023-03-26T07:53:03;42.20;26.40
69204;DHT22;56317;27.658;85.326;2023-03-26T07:55:51;43.30;25.70
69204;DHT22;56317;27.658;85.326;2023-03-26T08:01:48;43.40;25.30
69204;DHT22;56317;27.658;85.326;2023-03-26T08:07:14;45.10;25.40
69204;DHT22;56317;27.658;85.326;2023-03-26T08:20:44;45.20;25.90
69204;DHT22;56317;27.658;85.326;2023-03-26T08:23:25;45.20;25.90
69204;DHT22;56317;27.658;85.326;2023-03-26T08:26:04;44.70;25.70
69204;DHT22;56317;27.658;85.326;2023-03-26T08:31:12;45.50;26.30
69204;DHT22;56317;27.658;85.326;2023-03-26T08:33:40;46.70;26.20
69204;DHT22;56317;27.658;85.326;2023-03-26T08:36:09;47.00;25.80
69204;DHT22;56317;27.658;85.326;2023-03-26T08:38:36;46.60;25.70
69204;DHT22;56317;27.658;85.326;2023-03-26T08:50:11;46.60;25.60
69204;DHT22;56317;27.658;85.326;2023-03-26T08:53:01;48.80;25.10
69204;DHT22;56317;27.658;85.326;2023-03-26T09:10:23;48.00;25.60
69204;DHT22;56317;27.658;85.326;2023-03-26T09:40:34;46.90;26.20
69204;DHT22;56317;27.658;85.326;2023-03-26T09:57:38;45.80;25.90
69204;DHT22;56317;27.658;85.326;2023-03-26T10:16:11;43.90;27.10
69204;DHT22;56317;27.658;85.326;2023-03-26T10:41:15;43.00;27.60
69204;DHT22;56317;27.658;85.326;2023-03-26T10:52:26;41.00;27.80
69204;DHT22;56317;27.658;85.326;2023-03-26T10:57:38;41.00;27.40
69204;DHT22;56317;27.658;85.326;2023-03-26T11:02:54;40.20;27.70
69204;DHT22;56317;27.658;85.326;2023-03-26T11:25:37;30.90;30.60
69204;DHT22;56317;27.658;85.326;2023-03-26T11:28:19;29.40;30.60
69204;DHT22;56317;27.658;85.326;2023-03-26T11:31:01;28.30;31.30
69204;DHT22;56317;27.658;85.326;2023-03-26T11:33:38;27.60;31.10
69204;DHT22;56317;27.658;85.326;2023-03-26T11:36:11;27.00;31.50
69204;DHT22;56317;27.658;85.326;2023-03-26T11:38:45;26.50;31.70
69204;DHT22;56317;27.658;85.326;2023-03-26T11:41:24;26.00;32.40
69204;DHT22;56317;27.658;85.326;2023-03-26T11:44:29;25.50;32.60
69204;DHT22;56317;27.658;85.326;2023-03-26T11:46:51;25.10;32.80
69204;DHT22;56317;27.658;85.326;2023-03-26T11:49:25;24.70;33.60
69204;DHT22;56317;27.658;85.326;2023-03-26T11:51:55;24.30;34.70
69204;DHT22;56317;27.658;85.326;2023-03-26T11:54:24;24.00;34.50
69204;DHT22;56317;27.658;85.326;2023-03-26T11:57:09;23.70;34.90
69204;DHT22;56317;27.658;85.326;2023-03-26T12:02:25;23.10;35.70
69204;DHT22;56317;27.658;85.326;2023-03-26T12:08:01;22.50;36.50
69204;DHT22;56317;27.658;85.326;2023-03-26T12:10:36;22.20;36.60
69204;DHT22;56317;27.658;85.326;2023-03-26T12:13:34;21.90;37.10
69204;DHT22;56317;27.658;85.326;2023-03-26T12:16:15;21.60;37.30
69204;DHT22;56317;27.658;85.326;2023-03-26T12:18:43;21.40;38.40
69204;DHT22;56317;27.658;85.326;2023-03-26T12:21:17;21.20;39.10
69204;DHT22;56317;27.658;85.326;2023-03-26T12:23:53;21.00;39.00
69204;DHT22;56317;27.658;85.326;2023-03-26T12:26:42;20.80;39.60
69204;DHT22;56317;27.658;85.326;2023-03-26T12:29:14;20.50;40.10
69204;DHT22;56317;27.658;85.326;2023-03-26T12:31:54;20.30;40.80
69204;DHT22;56317;27.658;85.326;2023-03-26T12:37:01;20.00;42.50
69204;DHT22;56317;27.658;85.326;2023-03-26T12:39:37;19.70;41.80
69204;DHT22;56317;27.658;85.326;2023-03-26T12:42:24;19.50;43.10
69204;DHT22;56317;27.658;85.326;2023-03-26T12:44:52;19.30;43.10
69204;DHT22;56317;27.658;85.326;2023-03-26T12:47:28;19.20;43.90
69204;DHT22;56317;27.658;85.326;2023-03-26T12:49:57;19.10;44.00
69204;DHT22;56317;27.658;85.326;2023-03-26T12:55:43;18.80;45.00
69204;DHT22;56317;27.658;85.326;2023-03-26T13:04:42;18.50;45.80
69204;DHT22;56317;27.658;85.326;2023-03-26T13:07:40;18.40;47.00
69204;DHT22;56317;27.658;85.326;2023-03-26T13:16:24;18.30;49.50
69204;DHT22;56317;27.658;85.326;2023-03-26T13:29:59;18.00;50.60
69204;DHT22;56317;27.658;85.326;2023-03-26T13:41:14;17.80;51.20
69204;DHT22;56317;27.658;85.326;2023-03-26T13:44:05;17.70;51.70
69204;DHT22;56317;27.658;85.326;2023-03-26T13:46:39;17.60;52.50
69204;DHT22;56317;27.658;85.326;2023-03-26T13:58:02;17.10;53.20
69204;DHT22;56317;27.658;85.326;2023-03-26T14:03:28;16.90;54.30
69204;DHT22;56317;27.658;85.326;2023-03-26T14:06:03;16.80;54.60
69204;DHT22;56317;27.658;85.326;2023-03-26T14:08:42;16.60;55.60
69204;DHT22;56317;27.658;85.326;2023-03-26T14:11:30;16.60;56.70
69204;DHT22;56317;27.658;85.326;2023-03-26T14:14:17;16.50;56.90
69204;DHT22;56317;27.658;85.326;2023-03-26T14:16:54;16.50;56.90
69204;DHT22;56317;27.658;85.326;2023-03-26T14:19:48;16.40;56.40
69204;DHT22;56317;27.658;85.326;2023-03-26T14:27:50;16.60;57.40
69204;DHT22;56317;27.658;85.326;2023-03-26T14:30:41;16.70;56.70
69204;DHT22;56317;27.658;85.326;2023-03-26T14:42:02;16.70;57.50
69204;DHT22;56317;27.658;85.326;2023-03-26T14:47:22;16.60;58.50
69204;DHT22;56317;27.658;85.326;2023-03-26T14:53:20;16.50;58.80
69204;DHT22;56317;27.658;85.326;2023-03-26T15:22:41;16.40;62.50
69204;DHT22;56317;27.658;85.326;2023-03-26T15:25:41;16.50;62.10
69204;DHT22;56317;27.658;85.326;2023-03-26T15:31:21;16.30;62.40
69204;DHT22;56317;27.658;85.326;2023-03-26T15:34:03;16.20;62.90
69204;DHT22;56317;27.658;85.326;2023-03-26T15:42:39;15.90;64.80
69204;DHT22;56317;27.658;85.326;2023-03-26T15:53:22;16.00;65.30
69204;DHT22;56317;27.658;85.326;2023-03-26T15:58:27;16.10;65.00
69204;DHT22;56317;27.658;85.326;2023-03-26T16:09:32;16.10;63.60
69204;DHT22;56317;27.658;85.326;2023-03-26T16:12:28;16.00;63.70
69204;DHT22;56317;27.658;85.326;2023-03-26T16:15:24;16.00;64.10
69204;DHT22;56317;27.658;85.326;2023-03-26T16:26:20;15.80;64.40
69204;DHT22;56317;27.658;85.326;2023-03-26T16:33:56;15.80;65.00
69204;DHT22;56317;27.658;85.326;2023-03-26T16:36:34;15.80;65.00
69204;DHT22;56317;27.658;85.326;2023-03-26T16:47:18;15.70;66.20
69204;DHT22;56317;27.658;85.326;2023-03-26T16:50:17;15.80;66.60
69204;DHT22;56317;27.658;85.326;2023-03-26T16:58:49;15.60;67.60
69204;DHT22;56317;27.658;85.326;2023-03-26T17:01:37;15.60;68.10
69204;DHT22;56317;27.658;85.326;2023-03-26T17:04:20;15.60;69.20
69204;DHT22;56317;27.658;85.326;2023-03-26T17:15:31;15.70;70.90
69204;DHT22;56317;27.658;85.326;2023-03-26T17:20:52;15.50;71.20
69204;DHT22;56317;27.658;85.326;2023-03-26T17:23:50;15.30;71.70
69204;DHT22;56317;27.658;85.326;2023-03-26T17:26:44;15.20;72.40
69204;DHT22;56317;27.658;85.326;2023-03-26T17:29:25;15.00;72.90
69204;DHT22;56317;27.658;85.326;2023-03-26T17:37:36;14.80;75.80
69204;DHT22;56317;27.658;85.326;2023-03-26T17:49:00;14.80;79.10
69204;DHT22;56317;27.658;85.326;2023-03-26T17:54:49;14.70;79.10
69204;DHT22;56317;27.658;85.326;2023-03-26T17:57:42;14.70;80.70
69204;DHT22;56317;27.658;85.326;2023-03-26T18:00:22;14.60;82.40
69204;DHT22;56317;27.658;85.326;2023-03-26T18:05:38;14.40;84.00
69204;DHT22;56317;27.658;85.326;2023-03-26T18:08:33;14.30;85.60
69204;DHT22;56317;27.658;85.326;2023-03-26T18:14:24;14.10;88.30
69204;DHT22;56317;27.658;85.326;2023-03-26T18:16:58;14.00;90.10
69204;DHT22;56317;27.658;85.326;2023-03-26T18:19:27;13.80;91.60
69204;DHT22;56317;27.658;85.326;2023-03-26T18:21:57;13.70;92.60
69204;DHT22;56317;27.658;85.326;2023-03-26T18:27:00;13.80;94.20
69204;DHT22;56317;27.658;85.326;2023-03-26T18:29:29;13.70;94.70
69204;DHT22;56317;27.658;85.326;2023-03-26T18:34:44;13.70;95.40
69204;DHT22;56317;27.658;85.326;2023-03-26T18:37:22;13.60;96.10
69204;DHT22;56317;27.658;85.326;2023-03-26T18:40:22;13.50;96.90
69204;DHT22;56317;27.658;85.326;2023-03-26T18:42:51;13.50;97.20
69204;DHT22;56317;27.658;85.326;2023-03-26T18:45:28;13.40;98.40
69204;DHT22;56317;27.658;85.326;2023-03-26T18:48:04;13.30;98.80
69204;DHT22;56317;27.658;85.326;2023-03-26T18:50:37;13.20;99.40
69204;DHT22;56317;27.658;85.326;2023-03-26T18:53:27;13.10;99.90
69204;DHT22;56317;27.658;85.326;2023-03-26T18:55:55;13.00;99.90
69204;DHT22;56317;27.658;85.326;2023-03-26T18:58:30;12.90;99.90
69204;DHT22;56317;27.658;85.326;2023-03-26T19:01:00;12.90;99.90
69204;DHT22;56317;27.658;85.326;2023-03-26T19:03:37;12.90;99.90
69204;DHT22;56317;27.658;85.326;2023-03-26T19:06:10;12.90;99.90
69204;DHT22;56317;27.658;85.326;2023-03-26T19:08:43;12.90;99.90
69204;DHT22;56317;27.658;85.326;2023-03-26T19:11:14;12.70;99.90
69204;DHT22;56317;27.658;85.326;2023-03-26T19:13:42;12.70;99.90
69204;DHT22;56317;27.658;85.326;2023-03-26T19:16:25;12.60;99.90
69204;DHT22;56317;27.658;85.326;2023-03-26T19:19:01;12.60;99.90
69204;DHT22;56317;27.658;85.326;2023-03-26T19:21:30;12.70;99.90
69204;DHT22;56317;27.658;85.326;2023-03-26T19:23:57;12.60;99.90
69204;DHT22;56317;27.658;85.326;2023-03-26T19:26:24;12.60;99.90
69204;DHT22;56317;27.658;85.326;2023-03-26T19:28:53;12.50;99.90
69204;DHT22;56317;27.658;85.326;2023-03-26T19:31:27;12.50;99.90
69204;DHT22;56317;27.658;85.326;2023-03-26T19:34:00;12.50;99.90
69204;DHT22;56317;27.658;85.326;2023-03-26T19:36:32;12.40;99.90
69204;DHT22;56317;27.658;85.326;2023-03-26T19:41:31;12.30;99.90
69204;DHT22;56317;27.658;85.326;2023-03-26T19:44:01;12.30;99.90
69204;DHT22;56317;27.658;85.326;2023-03-26T19:46:32;12.20;99.90
69204;DHT22;56317;27.658;85.326;2023-03-26T19:49:00;12.10;99.90
69204;DHT22;56317;27.658;85.326;2023-03-26T19:51:32;12.00;99.90
69204;DHT22;56317;27.658;85.326;2023-03-26T19:54:10;11.90;99.90
69204;DHT22;56317;27.658;85.326;2023-03-26T19:56:39;11.90;99.90
69204;DHT22;56317;27.658;85.326;2023-03-26T19:59:06;12.00;99.90
69204;DHT22;56317;27.658;85.326;2023-03-26T20:01:33;11.90;99.90
69204;DHT22;56317;27.658;85.326;2023-03-26T20:04:04;11.90;99.90
69204;DHT22;56317;27.658;85.326;2023-03-26T20:06:32;11.80;99.90
69204;DHT22;56317;27.658;85.326;2023-03-26T20:09:00;11.80;99.90
69204;DHT22;56317;27.658;85.326;2023-03-26T20:11:36;11.70;99.90
69204;DHT22;56317;27.658;85.326;2023-03-26T20:14:13;11.60;99.90
69204;DHT22;56317;27.658;85.326;2023-03-26T20:16:40;11.60;99.90
69204;DHT22;56317;27.658;85.326;2023-03-26T20:19:07;11.60;99.90
69204;DHT22;56317;27.658;85.326;2023-03-26T20:21:34;11.60;99.90
69204;DHT22;56317;27.658;85.326;2023-03-26T20:24:15;11.50;99.90
69204;DHT22;56317;27.658;85.326;2023-03-26T20:26:47;11.50;99.90
69204;DHT22;56317;27.658;85.326;2023-03-26T20:29:17;11.40;99.90
69204;DHT22;56317;27.658;85.326;2023-03-26T20:31:45;11.30;99.90
69204;DHT22;56317;27.658;85.326;2023-03-26T20:34:22;11.30;99.90
69204;DHT22;56317;27.658;85.326;2023-03-26T20:36:50;11.20;99.90
69204;DHT22;56317;27.658;85.326;2023-03-26T20:39:25;11.20;99.90
69204;DHT22;56317;27.658;85.326;2023-03-26T20:41:53;11.20;99.90
69204;DHT22;56317;27.658;85.326;2023-03-26T20:44:22;11.10;99.90
69204;DHT22;56317;27.658;85.326;2023-03-26T20:46:49;11.10;99.90
69204;DHT22;56317;27.658;85.326;2023-03-26T20:49:17;11.10;99.90
69204;DHT22;56317;27.658;85.326;2023-03-26T20:51:44;11.10;99.90
69204;DHT22;56317;27.658;85.326;2023-03-26T20:54:20;11.00;99.90
69204;DHT22;56317;27.658;85.326;2023-03-26T20:56:49;10.90;99.90
69204;DHT22;56317;27.658;85.326;2023-03-26T20:59:19;10.90;99.90
69204;DHT22;56317;27.658;85.326;2023-03-26T21:01:48;10.90;99.90
69204;DHT22;56317;27.658;85.326;2023-03-26T21:04:16;10.90;99.90
69204;DHT22;56317;27.658;85.326;2023-03-26T21:06:44;11.00;99.90
69204;DHT22;56317;27.658;85.326;2023-03-26T21:09:17;11.00;99.90
69204;DHT22;56317;27.658;85.326;2023-03-26T21:14:38;11.20;99.90
69204;DHT22;56317;27.658;85.326;2023-03-26T21:17:15;11.20;99.90
69204;DHT22;56317;27.658;85.326;2023-03-26T21:19:43;11.30;99.90
69204;DHT22;56317;27.658;85.326;2023-03-26T21:22:31;11.30;99.90
69204;DHT22;56317;27.658;85.326;2023-03-26T21:25:17;11.30;99.90
69204;DHT22;56317;27.658;85.326;2023-03-26T21:28:00;11.10;99.90
69204;DHT22;56317;27.658;85.326;2023-03-26T21:30:32;11.00;99.90
69204;DHT22;56317;27.658;85.326;2023-03-26T21:32:59;10.90;99.90
69204;DHT22;56317;27.658;85.326;2023-03-26T21:35:27;10.80;99.90
69204;DHT22;56317;27.658;85.326;2023-03-26T21:37:57;10.80;99.90
69204;DHT22;56317;27.658;85.326;2023-03-26T21:40:24;10.70;99.90
69204;DHT22;56317;27.658;85.326;2023-03-26T21:42:52;10.70;99.90
69204;DHT22;56317;27.658;85.326;2023-03-26T21:45:20;10.60;99.90
69204;DHT22;56317;27.658;85.326;2023-03-26T21:47:47;10.60;99.90
69204;DHT22;56317;27.658;85.326;2023-03-26T21:50:17;10.70;99.90
69204;DHT22;56317;27.658;85.326;2023-03-26T21:52:46;10.70;99.90
69204;DHT22;56317;27.658;85.326;2023-03-26T21:55:21;10.70;99.90
69204;DHT22;56317;27.658;85.326;2023-03-26T22:01:05;10.50;99.90
69204;DHT22;56317;27.658;85.326;2023-03-26T22:06:20;10.40;99.90
69204;DHT22;56317;27.658;85.326;2023-03-26T22:08:48;10.40;99.90
69204;DHT22;56317;27.658;85.326;2023-03-26T22:11:15;10.40;99.90
69204;DHT22;56317;27.658;85.326;2023-03-26T22:13:42;10.30;99.90
69204;DHT22;56317;27.658;85.326;2023-03-26T22:16:10;10.40;99.90
69204;DHT22;56317;27.658;85.326;2023-03-26T22:18:37;10.40;99.90
69204;DHT22;56317;27.658;85.326;2023-03-26T22:21:06;10.40;99.90
69204;DHT22;56317;27.658;85.326;2023-03-26T22:23:36;10.30;99.90
69204;DHT22;56317;27.658;85.326;2023-03-26T22:26:04;10.30;99.90
69204;DHT22;56317;27.658;85.326;2023-03-26T22:28:31;10.40;99.90
69204;DHT22;56317;27.658;85.326;2023-03-26T22:31:03;10.40;99.90
69204;DHT22;56317;27.658;85.326;2023-03-26T22:33:31;10.50;99.90